createdAt,value
2022-11-03T00:01:47.749Z,100.00
2022-11-03T00:04:17.209Z,100.00
2022-11-03T00:06:45.867Z,100.00
2022-11-03T00:09:15.849Z,100.00
2022-11-03T00:11:44.097Z,100.00
2022-11-03T00:14:11.858Z,100.00
2022-11-03T00:16:39.791Z,100.00
2022-11-03T00:19:08.467Z,100.00
2022-11-03T00:21:35.374Z,100.00
2022-11-03T00:24:02.863Z,100.00
2022-11-03T00:26:31.442Z,100.00
2022-11-03T00:29:06.128Z,100.00
2022-11-03T00:31:34.893Z,100.00
2022-11-03T00:34:03.011Z,100.00
2022-11-03T00:36:34.129Z,100.00
2022-11-03T00:39:00.983Z,99.67
2022-11-03T00:41:27.934Z,100.00
2022-11-03T00:43:55.321Z,100.00
2022-11-03T00:46:24.004Z,100.00
2022-11-03T00:48:51.643Z,100.00
2022-11-03T00:51:23.688Z,100.00
2022-11-03T00:53:55.722Z,99.78
2022-11-03T00:56:26.900Z,100.00
2022-11-03T00:58:55.065Z,100.00
2022-11-03T01:01:33.304Z,100.00
2022-11-03T01:04:18.576Z,100.00
2022-11-03T01:06:50.974Z,100.00
2022-11-03T01:09:19.862Z,100.00
2022-11-03T01:12:06.313Z,100.00
2022-11-03T01:14:53.038Z,100.00
2022-11-03T01:17:24.991Z,100.00
2022-11-03T01:19:52.650Z,100.00
2022-11-03T01:22:20.723Z,100.00
2022-11-03T01:24:47.602Z,100.00
2022-11-03T01:27:17.857Z,100.00
2022-11-03T01:29:44.576Z,100.00
2022-11-03T01:32:12.019Z,100.00
2022-11-03T01:34:39.216Z,100.00
2022-11-03T01:37:06.229Z,100.00
2022-11-03T01:39:32.914Z,100.00
2022-11-03T01:41:59.700Z,100.00
2022-11-03T01:44:37.496Z,100.00
2022-11-03T01:47:22.587Z,100.00
2022-11-03T01:49:54.091Z,100.00
2022-11-03T01:52:45.021Z,100.00
2022-11-03T01:55:17.436Z,100.00
2022-11-03T01:57:54.667Z,100.00
2022-11-03T02:00:22.178Z,100.00
2022-11-03T02:02:49.198Z,100.00
2022-11-03T02:05:18.500Z,100.00
2022-11-03T02:07:54.672Z,100.00
2022-11-03T02:10:23.136Z,100.00
2022-11-03T02:12:49.992Z,100.00
2022-11-03T02:15:19.744Z,100.00
2022-11-03T02:17:48.386Z,100.00
2022-11-03T02:20:19.891Z,100.00
2022-11-03T02:22:52.426Z,100.00
2022-11-03T02:25:48.456Z,100.00
2022-11-03T02:28:19.673Z,100.00
2022-11-03T02:30:51.136Z,100.00
2022-11-03T02:33:50.026Z,100.00
2022-11-03T02:36:25.743Z,100.00
2022-11-03T02:39:09.305Z,100.00
2022-11-03T02:41:38.320Z,100.00
2022-11-03T02:44:08.513Z,100.00
2022-11-03T02:46:36.560Z,100.00
2022-11-03T02:49:03.436Z,100.00
2022-11-03T02:51:30.114Z,100.00
2022-11-03T02:54:16.556Z,100.00
2022-11-03T02:57:18.835Z,100.00
2022-11-03T02:59:53.556Z,100.00
2022-11-03T03:02:27.651Z,100.00
2022-11-03T03:04:58.041Z,100.00
2022-11-03T03:07:35.681Z,100.00
2022-11-03T03:10:02.523Z,100.00
2022-11-03T03:12:32.194Z,100.00
2022-11-03T03:15:00.824Z,100.00
2022-11-03T03:18:01.509Z,100.00
2022-11-03T03:20:51.081Z,100.00
2022-11-03T03:23:26.569Z,100.00
2022-11-03T03:26:11.684Z,100.00
2022-11-03T03:28:51.618Z,100.00
2022-11-03T03:31:20.716Z,100.00
2022-11-03T03:33:53.255Z,100.00
2022-11-03T03:36:27.373Z,100.00
2022-11-03T03:38:59.695Z,100.00
2022-11-03T03:41:32.579Z,100.00
2022-11-03T03:44:02.328Z,100.00
2022-11-03T03:46:36.998Z,100.00
2022-11-03T03:49:04.373Z,100.00
2022-11-03T03:51:32.022Z,100.00
2022-11-03T03:53:58.829Z,100.00
2022-11-03T03:56:34.833Z,100.00
2022-11-03T03:59:01.548Z,100.00
2022-11-03T04:01:28.273Z,100.00
2022-11-03T04:03:55.045Z,100.00
2022-11-03T04:06:21.730Z,100.00
2022-11-03T04:08:48.366Z,100.00
2022-11-03T04:11:34.009Z,100.00
2022-11-03T04:14:19.524Z,100.00
2022-11-03T04:17:04.712Z,100.00
2022-11-03T04:19:49.949Z,100.00
2022-11-03T04:22:17.055Z,100.00
2022-11-03T04:24:49.096Z,100.00
2022-11-03T04:27:18.812Z,100.00
2022-11-03T04:29:45.491Z,100.00
2022-11-03T04:32:17.825Z,100.00
2022-11-03T04:34:48.405Z,100.00
2022-11-03T04:37:16.007Z,100.00
2022-11-03T04:42:20.754Z,100.00
2022-11-03T04:44:48.436Z,100.00
2022-11-03T04:47:17.245Z,100.00
2022-11-03T04:49:45.121Z,100.00
2022-11-03T04:52:17.585Z,100.00
2022-11-03T04:54:45.079Z,100.00
2022-11-03T04:57:16.657Z,100.00
2022-11-03T04:59:45.649Z,100.00
2022-11-03T05:02:19.053Z,100.00
2022-11-03T05:04:46.043Z,100.00
2022-11-03T05:07:22.068Z,100.00
2022-11-03T05:09:49.588Z,100.00
2022-11-03T05:12:17.533Z,100.00
2022-11-03T05:14:44.520Z,100.00
2022-11-03T05:17:29.424Z,100.00
2022-11-03T05:20:02.401Z,98.65
2022-11-03T05:22:36.378Z,99.79
2022-11-03T05:25:25.306Z,100.00
2022-11-03T05:27:51.978Z,100.00
2022-11-03T05:30:18.834Z,100.00
2022-11-03T05:32:45.509Z,100.00
2022-11-03T05:35:21.275Z,100.00
2022-11-03T05:37:48.302Z,100.00
2022-11-03T05:40:26.456Z,100.00
2022-11-03T05:43:00.663Z,100.00
2022-11-03T05:45:31.345Z,100.00
2022-11-03T05:47:58.867Z,99.25
2022-11-03T05:50:28.888Z,100.00
2022-11-03T05:53:24.720Z,96.07
2022-11-03T05:55:51.885Z,96.66
2022-11-03T05:58:30.895Z,97.50
2022-11-03T06:01:00.613Z,96.77
2022-11-03T06:03:34.669Z,96.95
2022-11-03T06:06:02.753Z,98.00
2022-11-03T06:08:38.856Z,95.80
2022-11-03T06:11:14.792Z,92.57
2022-11-03T06:13:41.615Z,91.79
2022-11-03T06:16:38.860Z,100.00
2022-11-03T06:19:27.209Z,96.80
2022-11-03T06:21:56.951Z,92.10
2022-11-03T06:24:27.313Z,95.77
2022-11-03T06:26:53.955Z,98.15
2022-11-03T06:29:21.792Z,100.00
2022-11-03T06:31:52.208Z,100.00
2022-11-03T06:34:28.169Z,96.76
2022-11-03T06:36:58.706Z,97.44
2022-11-03T06:39:25.840Z,88.73
2022-11-03T06:41:53.053Z,87.30
2022-11-03T06:44:25.920Z,85.66
2022-11-03T06:47:14.666Z,89.71
2022-11-03T06:49:41.391Z,91.40
2022-11-03T06:52:29.780Z,85.45
2022-11-03T06:55:02.176Z,83.01
2022-11-03T06:57:33.244Z,89.04
2022-11-03T07:00:13.382Z,84.77
2022-11-03T07:02:57.050Z,78.96
2022-11-03T07:05:29.124Z,85.24
2022-11-03T07:07:58.501Z,80.71
2022-11-03T07:10:28.953Z,81.83
2022-11-03T07:12:56.709Z,77.41
2022-11-03T07:15:30.608Z,75.17
2022-11-03T07:17:57.690Z,68.41
2022-11-03T07:20:24.381Z,65.05
2022-11-03T07:22:52.643Z,63.32
2022-11-03T07:25:21.723Z,63.35
2022-11-03T07:27:54.800Z,64.52
2022-11-03T07:30:35.065Z,66.15
2022-11-03T07:33:12.745Z,65.41
2022-11-03T07:36:13.807Z,70.66
2022-11-03T07:38:33.411Z,72.36
2022-11-03T07:41:01.320Z,68.75
2022-11-03T07:43:33.263Z,69.34
2022-11-03T07:46:02.546Z,60.82
2022-11-03T07:48:45.820Z,59.98
2022-11-03T07:51:27.506Z,57.35
2022-11-03T07:53:58.616Z,55.18
2022-11-03T07:56:27.288Z,48.82
2022-11-03T07:59:00.848Z,45.67
2022-11-03T08:01:32.887Z,40.85
2022-11-03T08:04:06.206Z,37.18
2022-11-03T08:06:33.427Z,35.12
2022-11-03T08:09:00.224Z,32.88
2022-11-03T08:11:29.362Z,32.44
2022-11-03T08:13:56.677Z,31.53
2022-11-03T08:16:23.346Z,33.26
2022-11-03T08:18:50.010Z,34.92
2022-11-03T08:21:17.487Z,35.11
2022-11-03T08:23:47.271Z,33.82
2022-11-03T08:26:15.200Z,33.55
2022-11-03T08:28:41.960Z,33.45
2022-11-03T08:31:12.523Z,32.42
2022-11-03T08:33:40.904Z,32.85
2022-11-03T08:36:11.633Z,31.68
2022-11-03T08:38:38.458Z,30.92
2022-11-03T08:41:05.355Z,31.12
2022-11-03T08:43:32.019Z,30.45
2022-11-03T08:46:06.613Z,30.37
2022-11-03T08:48:40.241Z,30.67
2022-11-03T08:51:08.568Z,30.51
2022-11-03T08:53:35.497Z,30.66
2022-11-03T08:56:02.222Z,30.84
2022-11-03T08:58:29.012Z,30.61
2022-11-03T09:00:55.685Z,29.81
2022-11-03T09:03:22.609Z,29.86
2022-11-03T09:05:49.861Z,29.86
2022-11-03T09:11:03.596Z,29.35
2022-11-03T09:13:30.213Z,29.96
2022-11-03T09:15:56.883Z,28.20
2022-11-03T09:18:23.502Z,29.22
2022-11-03T09:20:50.348Z,28.19
2022-11-03T09:23:17.012Z,28.53
2022-11-03T09:25:43.713Z,27.78
2022-11-03T09:28:10.665Z,28.22
2022-11-03T09:30:37.614Z,29.20
2022-11-03T09:33:04.347Z,28.85
2022-11-03T09:35:31.022Z,28.29
2022-11-03T09:37:57.698Z,27.95
2022-11-03T09:40:25.534Z,26.65
2022-11-03T09:42:52.427Z,28.15
2022-11-03T09:45:19.441Z,28.19
2022-11-03T09:47:47.298Z,27.68
2022-11-03T09:50:17.150Z,29.00
2022-11-03T09:52:50.244Z,28.63
2022-11-03T09:55:25.179Z,29.89
2022-11-03T09:57:59.464Z,27.96
2022-11-03T10:00:27.397Z,28.98
2022-11-03T10:02:55.633Z,30.21
2022-11-03T10:05:27.670Z,30.72
2022-11-03T10:07:59.230Z,31.64
2022-11-03T10:10:26.516Z,31.52
2022-11-03T10:12:53.647Z,31.52
2022-11-03T10:15:23.273Z,30.38
2022-11-03T10:17:50.766Z,29.86
2022-11-03T10:20:22.438Z,30.82
2022-11-03T10:22:53.444Z,30.19
2022-11-03T10:25:27.377Z,29.18
2022-11-03T10:28:17.108Z,29.36
2022-11-03T10:33:42.596Z,28.59
2022-11-03T10:36:15.328Z,27.09
2022-11-03T10:38:43.746Z,27.14
2022-11-03T10:41:16.371Z,27.12
2022-11-03T10:43:45.456Z,26.58
2022-11-03T10:46:36.625Z,27.07
2022-11-03T10:51:38.517Z,27.86
2022-11-03T10:54:09.109Z,27.37
2022-11-03T10:56:36.194Z,29.17
2022-11-03T10:59:03.436Z,28.73
2022-11-03T11:01:30.364Z,29.12
2022-11-03T11:03:57.984Z,29.87
2022-11-03T11:06:29.937Z,30.37
2022-11-03T11:09:04.969Z,30.32
2022-11-03T11:11:31.997Z,30.59
2022-11-03T11:14:39.211Z,31.02
2022-11-03T11:17:06.794Z,32.27
2022-11-03T11:20:11.744Z,32.97
2022-11-03T11:22:38.379Z,31.99
2022-11-03T11:25:05.219Z,31.60
2022-11-03T11:27:34.563Z,32.46
2022-11-03T11:30:07.299Z,31.94
2022-11-03T11:32:36.877Z,31.64
2022-11-03T11:35:03.615Z,32.74
2022-11-03T11:37:30.188Z,34.50
2022-11-03T11:39:56.825Z,34.83
2022-11-03T11:42:23.486Z,35.41
2022-11-03T11:44:57.749Z,35.27
2022-11-03T11:47:32.613Z,36.26
2022-11-03T11:50:11.682Z,36.86
2022-11-03T11:53:01.697Z,37.18
2022-11-03T11:55:43.169Z,37.04
2022-11-03T11:58:18.854Z,36.98
2022-11-03T12:01:04.127Z,37.21
2022-11-03T12:03:39.963Z,37.07
2022-11-03T12:06:07.390Z,37.06
2022-11-03T12:08:34.172Z,37.37
2022-11-03T12:11:03.758Z,37.49
2022-11-03T12:13:43.801Z,37.11
2022-11-03T12:16:36.874Z,37.30
2022-11-03T12:19:42.008Z,37.72
2022-11-03T12:22:24.986Z,36.71
2022-11-03T12:24:56.588Z,37.03
2022-11-03T12:27:28.400Z,37.58
2022-11-03T12:29:57.326Z,37.63
2022-11-03T12:32:34.100Z,37.88
2022-11-03T12:35:06.696Z,38.06
2022-11-03T12:37:33.392Z,38.58
2022-11-03T12:40:00.221Z,38.12
2022-11-03T12:42:27.312Z,37.55
2022-11-03T12:44:53.970Z,37.28
2022-11-03T12:47:20.840Z,37.17
2022-11-03T12:49:48.226Z,37.80
2022-11-03T12:52:15.176Z,38.38
2022-11-03T12:54:42.535Z,38.44
2022-11-03T12:57:09.609Z,38.61
2022-11-03T12:59:37.034Z,38.79
2022-11-03T13:02:04.098Z,38.57
2022-11-03T13:04:30.931Z,38.62
2022-11-03T13:06:57.559Z,38.87
2022-11-03T13:09:24.272Z,38.68
2022-11-03T13:12:09.475Z,39.21
2022-11-03T13:14:37.580Z,38.98
2022-11-03T13:17:04.800Z,39.18
2022-11-03T13:19:31.570Z,39.36
2022-11-03T13:21:58.216Z,39.27
2022-11-03T13:24:25.080Z,40.21
2022-11-03T13:26:51.791Z,39.45
2022-11-03T13:29:18.557Z,39.83
2022-11-03T13:31:45.183Z,40.67
2022-11-03T13:34:12.200Z,40.21
2022-11-03T13:36:41.997Z,40.51
2022-11-03T13:39:09.703Z,40.40
2022-11-03T13:41:36.497Z,41.25
2022-11-03T13:44:03.237Z,40.72
2022-11-03T13:46:29.971Z,40.96
2022-11-03T13:51:43.427Z,41.65
2022-11-03T13:59:43.620Z,41.56
2022-11-03T14:04:57.803Z,41.81
2022-11-03T14:07:24.679Z,42.35
2022-11-03T14:09:51.372Z,42.11
2022-11-03T14:12:34.663Z,41.61
2022-11-03T14:15:06.865Z,41.79
2022-11-03T14:17:33.644Z,41.90
2022-11-03T14:20:04.256Z,42.55
2022-11-03T14:22:32.068Z,42.79
2022-11-03T14:24:59.330Z,42.65
2022-11-03T14:27:26.146Z,42.63
2022-11-03T14:29:53.303Z,42.69
2022-11-03T14:32:20.568Z,42.93
2022-11-03T14:34:48.314Z,43.67
2022-11-03T14:37:15.993Z,43.53
2022-11-03T14:39:42.833Z,43.29
2022-11-03T14:42:15.592Z,44.12
2022-11-03T14:44:44.065Z,44.05
2022-11-03T14:47:13.050Z,43.97
2022-11-03T14:49:39.857Z,44.27
2022-11-03T14:52:07.579Z,44.48
2022-11-03T14:54:35.574Z,45.70
2022-11-03T14:57:03.403Z,46.86
2022-11-03T14:59:30.126Z,47.51
2022-11-03T15:01:58.109Z,47.05
2022-11-03T15:04:24.917Z,48.18
2022-11-03T15:06:51.591Z,49.53
2022-11-03T15:09:19.711Z,49.81
2022-11-03T15:11:46.916Z,50.63
2022-11-03T15:14:14.009Z,50.55
2022-11-03T15:16:40.981Z,51.59
2022-11-03T15:19:08.835Z,51.74
2022-11-03T15:21:35.981Z,52.41
2022-11-03T15:26:50.690Z,53.50
2022-11-03T15:29:17.385Z,53.42
2022-11-03T15:31:47.917Z,54.01
2022-11-03T15:34:15.992Z,55.04
2022-11-03T15:36:42.710Z,57.38
2022-11-03T15:39:09.662Z,57.67
2022-11-03T15:41:36.576Z,58.97
2022-11-03T15:44:03.379Z,59.95
2022-11-03T15:46:30.192Z,60.43
2022-11-03T15:48:57.727Z,60.79
2022-11-03T15:51:24.908Z,61.97
2022-11-03T15:53:57.861Z,62.77
2022-11-03T15:56:26.069Z,63.01
2022-11-03T15:58:52.752Z,62.37
2022-11-03T16:01:20.664Z,63.28
2022-11-03T16:03:47.673Z,61.55
2022-11-03T16:06:14.763Z,62.80
2022-11-03T16:08:41.550Z,65.99
2022-11-03T16:11:09.173Z,65.53
2022-11-03T16:13:36.077Z,66.81
2022-11-03T16:16:03.256Z,66.61
2022-11-03T16:18:29.962Z,67.03
2022-11-03T16:20:56.708Z,66.82
2022-11-03T16:23:23.333Z,68.28
2022-11-03T16:25:50.034Z,68.28
2022-11-03T16:28:16.690Z,68.99
2022-11-03T16:30:43.480Z,69.94
2022-11-03T16:33:10.363Z,70.75
2022-11-03T16:35:37.069Z,73.26
2022-11-03T16:38:03.740Z,74.37
2022-11-03T16:40:30.554Z,74.61
2022-11-03T16:42:57.292Z,77.67
2022-11-03T16:45:26.700Z,79.45
2022-11-03T16:47:53.905Z,79.54
2022-11-03T16:50:20.572Z,79.89
2022-11-03T16:52:48.468Z,79.21
2022-11-03T16:55:16.439Z,80.41
2022-11-03T16:57:43.673Z,81.54
2022-11-03T17:00:19.302Z,82.86
2022-11-03T17:02:47.427Z,83.82
2022-11-03T17:05:17.809Z,84.40
2022-11-03T17:07:51.703Z,84.40
2022-11-03T17:10:20.717Z,84.06
2022-11-03T17:12:47.795Z,84.02
2022-11-03T17:15:14.992Z,84.91
2022-11-03T17:17:43.074Z,85.12
2022-11-03T17:20:11.335Z,85.76
2022-11-03T17:22:38.601Z,86.23
2022-11-03T17:25:07.123Z,86.86
2022-11-03T17:27:49.673Z,85.88
2022-11-03T17:30:25.749Z,87.34
2022-11-03T17:32:55.781Z,89.07
2022-11-03T17:35:33.659Z,89.59
2022-11-03T17:38:13.673Z,91.41
2022-11-03T17:40:42.382Z,90.81
2022-11-03T17:43:30.186Z,89.15
2022-11-03T17:45:57.360Z,88.56
2022-11-03T17:48:24.387Z,89.79
2022-11-03T17:50:53.800Z,89.60
2022-11-03T17:53:26.397Z,89.70
2022-11-03T17:56:23.598Z,89.68
2022-11-03T17:58:46.261Z,89.78
2022-11-03T18:01:20.295Z,89.63
2022-11-03T18:03:47.232Z,88.74
2022-11-03T18:06:19.479Z,93.78
2022-11-03T18:08:49.839Z,95.35
2022-11-03T18:11:49.184Z,96.54
2022-11-03T18:14:16.615Z,96.49
2022-11-03T18:16:43.354Z,98.11
2022-11-03T18:19:13.011Z,97.29
2022-11-03T18:21:40.372Z,96.28
2022-11-03T18:24:15.799Z,96.28
2022-11-03T18:26:42.932Z,97.86
2022-11-03T18:29:09.913Z,96.61
2022-11-03T18:31:38.325Z,96.80
2022-11-03T18:34:12.035Z,98.22
2022-11-03T18:36:39.040Z,98.76
2022-11-03T18:39:05.868Z,100.00
2022-11-03T18:41:41.817Z,100.00
2022-11-03T18:44:17.005Z,100.00
2022-11-03T18:46:43.772Z,100.00
2022-11-03T18:49:11.503Z,100.00
2022-11-03T18:51:38.478Z,100.00
2022-11-03T18:54:05.392Z,100.00
2022-11-03T18:56:38.170Z,100.00
2022-11-03T18:59:05.512Z,100.00
2022-11-03T19:01:32.279Z,100.00
2022-11-03T19:03:59.141Z,100.00
2022-11-03T19:06:26.013Z,100.00
2022-11-03T19:08:59.660Z,100.00
2022-11-03T19:11:26.918Z,100.00
2022-11-03T19:13:54.455Z,100.00
2022-11-03T19:16:23.761Z,100.00
2022-11-03T19:18:50.836Z,100.00
2022-11-03T19:21:23.547Z,100.00
2022-11-03T19:23:55.495Z,100.00
2022-11-03T19:26:29.544Z,100.00
2022-11-03T19:29:03.342Z,100.00
2022-11-03T19:31:38.513Z,100.00
2022-11-03T19:34:06.717Z,100.00
2022-11-03T19:36:33.410Z,100.00
2022-11-03T19:39:01.085Z,100.00
2022-11-03T19:41:46.442Z,100.00
2022-11-03T19:44:14.070Z,100.00
2022-11-03T19:46:42.240Z,100.00
2022-11-03T19:49:13.923Z,100.00
2022-11-03T19:51:40.989Z,100.00
2022-11-03T19:54:16.288Z,100.00
2022-11-03T19:56:43.009Z,100.00
2022-11-03T19:59:13.965Z,100.00
2022-11-03T20:01:41.222Z,100.00
2022-11-03T20:04:08.390Z,100.00
2022-11-03T20:06:37.909Z,100.00
2022-11-03T20:09:07.646Z,100.00
2022-11-03T20:11:35.777Z,100.00
2022-11-03T20:14:04.216Z,100.00
2022-11-03T20:16:31.408Z,100.00
2022-11-03T20:18:58.309Z,100.00
2022-11-03T20:21:31.389Z,100.00
2022-11-03T20:24:01.034Z,100.00
2022-11-03T20:26:28.690Z,100.00
2022-11-03T20:28:59.689Z,100.00
2022-11-03T20:31:26.375Z,100.00
2022-11-03T20:33:53.879Z,100.00
2022-11-03T20:36:21.054Z,100.00
2022-11-03T20:38:59.520Z,100.00
2022-11-03T20:41:28.530Z,100.00
2022-11-03T20:43:55.609Z,100.00
2022-11-03T20:46:26.283Z,100.00
2022-11-03T20:48:55.409Z,100.00
2022-11-03T20:51:24.923Z,100.00
2022-11-03T20:53:52.572Z,100.00
2022-11-03T20:56:22.974Z,100.00
2022-11-03T20:58:49.727Z,100.00
2022-11-03T21:01:30.741Z,100.00
2022-11-03T21:04:00.302Z,100.00
2022-11-03T21:06:29.309Z,100.00
2022-11-03T21:08:56.130Z,100.00
2022-11-03T21:11:25.520Z,100.00
2022-11-03T21:14:04.676Z,100.00
2022-11-03T21:16:50.407Z,100.00
2022-11-03T21:19:38.225Z,100.00
2022-11-03T21:22:45.846Z,100.00
2022-11-03T21:25:16.417Z,100.00
2022-11-03T21:27:43.157Z,100.00
2022-11-03T21:30:14.872Z,100.00
2022-11-03T21:32:41.772Z,100.00
2022-11-03T21:35:17.972Z,100.00
2022-11-03T21:37:44.861Z,100.00
2022-11-03T21:40:12.158Z,100.00
2022-11-03T21:42:57.941Z,100.00
2022-11-03T21:45:24.741Z,100.00
2022-11-03T21:48:13.668Z,100.00
2022-11-03T21:50:41.719Z,100.00
2022-11-03T21:53:09.118Z,100.00
2022-11-03T21:55:36.198Z,100.00
2022-11-03T21:58:03.599Z,100.00
2022-11-03T22:00:31.398Z,100.00
2022-11-03T22:02:59.352Z,100.00
2022-11-03T22:05:26.901Z,100.00
2022-11-03T22:07:53.635Z,100.00
2022-11-03T22:10:20.829Z,100.00
2022-11-03T22:12:47.573Z,100.00
2022-11-03T22:15:33.519Z,100.00
2022-11-03T22:18:00.738Z,100.00
2022-11-03T22:20:46.613Z,100.00
2022-11-03T22:23:34.111Z,100.00
2022-11-03T22:26:20.221Z,100.00
2022-11-03T22:29:06.892Z,100.00
2022-11-03T22:31:42.853Z,100.00
2022-11-03T22:34:28.344Z,100.00
2022-11-03T22:36:54.996Z,100.00
2022-11-03T22:39:40.170Z,100.00
2022-11-03T22:42:45.497Z,100.00
2022-11-03T22:45:30.809Z,100.00
2022-11-03T22:47:57.905Z,100.00
2022-11-03T22:50:24.759Z,100.00
2022-11-03T22:52:51.370Z,100.00
2022-11-03T22:55:18.040Z,100.00
2022-11-03T22:57:44.709Z,100.00
2022-11-03T23:00:13.584Z,100.00
2022-11-03T23:02:40.272Z,100.00
2022-11-03T23:05:08.044Z,100.00
2022-11-03T23:07:40.847Z,100.00
2022-11-03T23:10:08.811Z,100.00
2022-11-03T23:12:35.518Z,100.00
2022-11-03T23:15:20.670Z,100.00
2022-11-03T23:18:05.804Z,100.00
2022-11-03T23:20:51.167Z,100.00
2022-11-03T23:23:37.798Z,100.00
2022-11-03T23:26:04.485Z,100.00
2022-11-03T23:28:31.091Z,100.00
2022-11-03T23:30:57.754Z,100.00
2022-11-03T23:33:24.724Z,100.00
2022-11-03T23:35:51.430Z,100.00
2022-11-03T23:38:20.649Z,100.00
2022-11-03T23:40:47.364Z,100.00
2022-11-03T23:43:14.812Z,100.00
2022-11-03T23:46:00.123Z,100.00
2022-11-03T23:48:45.433Z,100.00
2022-11-03T23:51:26.217Z,100.00
2022-11-03T23:53:53.982Z,100.00
2022-11-03T23:56:41.918Z,100.00
2022-11-03T23:59:10.464Z,100.00
